Valley Home, California
Current Conditions -  °F | °C
As of 7:53 PM on Sunday 23 Nov 2014 (Local Time) from KMOD Reporting Station
Broken Clouds Broken Clouds  
Wind Chill: 48°   Ceiling: 11000
Heat Index: 48°   Visibility: 10mi
Dew Point: 43°   Wind: 0mph
Humidity: 83%   Direction: NA
Pressure: 30.3"   Gusts: NA
Location:  37.7848°N, 120.772°W
Report Text: KMOD 240353Z 00000KT 10SM BKN110 09/06 A3030 RMK AO2 SLP261 T00890061 $
Loading
Personal Weather Stations






























Interactive Weather Map New forecast layout! Learn more

10-Day Weather Forecast

Advertisements
Track Severe Weather on mobile